Time;durP1;ratioP1;P1;durP2;ratioP2;P2;SDS_P1;SDS_P2;PMS_P1;PMS_P2;Temp;Humidity;BMP_temperature;BMP_pressure;BME280_temperature;BME280_humidity;BME280_pressure;Samples;Min_cycle;Max_cycle;Signal;HPM_P1;HPM_P2
2021/01/07 00:00:17;;;;;;;1.85;1.52;;;16.20;38.20;;;;;;6108022;23;20605;-80
2021/01/07 00:02:46;;;;;;;1.63;1.50;;;16.20;37.50;;;;;;6134521;23;20160;-80
2021/01/07 00:05:21;;;;;;;1.50;1.30;;;16.30;37.50;;;;;;6107996;23;20203;-79
2021/01/07 00:07:48;;;;;;;1.60;1.50;;;16.20;37.50;;;;;;6135249;23;20152;-80
2021/01/07 00:10:14;;;;;;;1.63;1.50;;;16.20;37.50;;;;;;6134079;23;20145;-79
2021/01/07 00:12:41;;;;;;;1.60;1.50;;;16.20;37.60;;;;;;6109259;23;20565;-80
2021/01/07 00:15:09;;;;;;;1.67;1.58;;;16.20;37.60;;;;;;6134668;23;20133;-80
2021/01/07 00:17:36;;;;;;;1.63;1.52;;;16.20;37.70;;;;;;6133390;23;20231;-80
2021/01/07 00:20:05;;;;;;;1.90;1.52;;;16.20;37.70;;;;;;6105014;23;20128;-79
2021/01/07 00:22:31;;;;;;;1.65;1.50;;;16.20;37.60;;;;;;6081335;23;20155;-80
2021/01/07 00:24:58;;;;;;;1.60;1.50;;;16.20;37.60;;;;;;6130997;23;20153;-79
2021/01/07 00:27:24;;;;;;;1.58;1.40;;;16.20;37.60;;;;;;6105384;23;20129;-80
2021/01/07 00:29:59;;;;;;;1.70;1.40;;;16.20;37.60;;;;;;6130525;23;20254;-80
2021/01/07 00:32:26;;;;;;;1.58;1.42;;;16.20;37.60;;;;;;6130638;23;20583;-79
2021/01/07 00:34:51;;;;;;;2.08;1.55;;;16.30;37.60;;;;;;6101874;23;20188;-80
2021/01/07 00:37:18;;;;;;;1.40;1.30;;;16.20;37.70;;;;;;6103289;23;20149;-81
2021/01/07 00:39:45;;;;;;;1.73;1.42;;;16.20;37.70;;;;;;6102049;23;20141;-79
2021/01/07 00:42:12;;;;;;;1.45;1.35;;;16.20;37.70;;;;;;6103198;23;20577;-80
2021/01/07 00:44:38;;;;;;;1.95;1.73;;;16.20;37.80;;;;;;6101791;23;20171;-80
2021/01/07 00:47:04;;;;;;;1.67;1.38;;;16.10;37.80;;;;;;6104472;23;20164;-79
2021/01/07 00:49:31;;;;;;;1.48;1.38;;;16.20;37.80;;;;;;6103494;23;20296;-80
2021/01/07 00:51:58;;;;;;;2.05;1.50;;;16.20;37.80;;;;;;6103450;23;20144;-80
2021/01/07 00:54:24;;;;;;;1.40;1.30;;;16.20;37.80;;;;;;6104109;23;20177;-80
2021/01/07 00:56:52;;;;;;;1.73;1.48;;;16.20;37.80;;;;;;6103389;23;20212;-80
2021/01/07 00:59:18;;;;;;;1.70;1.60;;;16.20;37.80;;;;;;6103350;23;20571;-79
2021/01/07 01:01:48;;;;;;;1.92;1.60;;;16.20;37.70;;;;;;6103964;23;20141;-80
2021/01/07 01:04:15;;;;;;;1.60;1.38;;;16.20;37.70;;;;;;6103592;23;20596;-80
2021/01/07 01:06:43;;;;;;;1.60;1.50;;;16.20;37.80;;;;;;6103027;23;20137;-80
2021/01/07 01:09:09;;;;;;;1.70;1.60;;;16.20;37.80;;;;;;6102004;23;20192;-81
2021/01/07 01:11:45;;;;;;;1.70;1.60;;;16.20;37.80;;;;;;6102071;23;20224;-80
2021/01/07 01:14:16;;;;;;;1.33;1.23;;;16.10;37.90;;;;;;6101736;23;20564;-81
2021/01/07 01:16:43;;;;;;;1.50;1.35;;;16.10;37.90;;;;;;6104050;23;20163;-80
2021/01/07 01:19:09;;;;;;;1.50;1.40;;;16.10;37.80;;;;;;6103795;23;20565;-80
2021/01/07 01:21:35;;;;;;;1.63;1.40;;;16.20;37.90;;;;;;6103401;23;20138;-81
2021/01/07 01:24:01;;;;;;;1.92;1.50;;;16.20;37.90;;;;;;6103458;23;20479;-80
2021/01/07 01:26:35;;;;;;;1.60;1.50;;;16.10;37.90;;;;;;6101952;23;20169;-80
2021/01/07 01:29:02;;;;;;;1.90;1.63;;;16.10;37.90;;;;;;6102436;23;20164;-80
2021/01/07 01:31:29;;;;;;;1.42;1.30;;;16.10;37.90;;;;;;6103886;23;20199;-81
2021/01/07 01:33:55;;;;;;;1.67;1.58;;;16.20;37.90;;;;;;6104757;23;20216;-81
2021/01/07 01:36:40;;;;;;;1.42;1.30;;;16.20;37.90;;;;;;6132824;23;20143;-79
2021/01/07 01:39:15;;;;;;;1.50;1.30;;;16.20;38.60;;;;;;6128735;23;20167;-81
2021/01/07 01:41:50;;;;;;;1.67;1.58;;;16.20;37.90;;;;;;6107430;23;20135;-80
2021/01/07 01:44:17;;;;;;;1.67;1.45;;;16.20;38.00;;;;;;6106866;23;20136;-81
2021/01/07 01:46:52;;;;;;;1.52;1.42;;;16.10;38.00;;;;;;6133326;23;20140;-80
2021/01/07 01:49:18;;;;;;;2.15;1.60;;;16.10;38.00;;;;;;6133121;23;20175;-79
2021/01/07 01:51:44;;;;;;;1.42;1.30;;;16.20;38.20;;;;;;6084477;23;20133;-80
2021/01/07 01:54:09;;;;;;;1.60;1.45;;;16.10;38.10;;;;;;6107474;23;20586;-79
2021/01/07 01:56:36;;;;;;;1.70;1.38;;;16.10;38.00;;;;;;6107776;23;20136;-80
2021/01/07 01:59:02;;;;;;;1.75;1.45;;;16.10;38.10;;;;;;6107169;23;20140;-80
2021/01/07 02:01:27;;;;;;;1.83;1.52;;;16.20;38.10;;;;;;6107329;23;20140;-80
2021/01/07 02:03:54;;;;;;;1.45;1.35;;;16.20;37.90;;;;;;6133162;23;20140;-79
2021/01/07 02:06:21;;;;;;;1.85;1.70;;;16.20;37.90;;;;;;6107734;23;20137;-81
2021/01/07 02:08:47;;;;;;;1.63;1.52;;;16.30;37.80;;;;;;6083746;23;20254;-80
2021/01/07 02:11:14;;;;;;;1.90;1.70;;;16.20;38.00;;;;;;6133544;23;20137;-79
2021/01/07 02:13:40;;;;;;;1.60;1.50;;;16.20;38.00;;;;;;6106976;23;20165;-80
2021/01/07 02:16:06;;;;;;;1.77;1.58;;;16.20;38.10;;;;;;6107470;23;20132;-80
2021/01/07 02:18:32;;;;;;;1.73;1.40;;;16.20;38.10;;;;;;6132486;23;20212;-81
2021/01/07 02:20:59;;;;;;;1.40;1.30;;;16.20;37.90;;;;;;6132511;23;20144;-79
2021/01/07 02:23:25;;;;;;;1.65;1.55;;;16.20;38.00;;;;;;6083127;23;20147;-80
2021/01/07 02:25:51;;;;;;;1.40;1.30;;;16.30;37.90;;;;;;6107353;23;20215;-81
2021/01/07 02:28:16;;;;;;;1.52;1.35;;;16.30;37.80;;;;;;6107195;23;20224;-81
2021/01/07 02:30:42;;;;;;;1.65;1.45;;;16.30;37.90;;;;;;6132808;23;20139;-79
2021/01/07 02:33:08;;;;;;;1.52;1.20;;;16.30;37.90;;;;;;6106466;23;20445;-81
2021/01/07 02:35:33;;;;;;;1.88;1.40;;;16.30;37.90;;;;;;6106104;23;20635;-81
2021/01/07 02:37:59;;;;;;;1.33;1.20;;;16.30;37.80;;;;;;6132742;23;20139;-80
2021/01/07 02:40:25;;;;;;;1.60;1.30;;;16.30;37.80;;;;;;6132606;23;20133;-80
2021/01/07 02:42:50;;;;;;;1.77;1.50;;;16.30;38.00;;;;;;6106871;23;20560;-80
2021/01/07 02:45:16;;;;;;;1.40;1.30;;;16.30;37.90;;;;;;6133174;23;20156;-80
2021/01/07 02:47:41;;;;;;;1.50;1.35;;;16.30;37.90;;;;;;6132980;23;20132;-81
2021/01/07 02:50:08;;;;;;;1.40;1.30;;;16.30;37.80;;;;;;6132102;23;20195;-79
2021/01/07 02:52:33;;;;;;;1.60;1.40;;;16.30;37.90;;;;;;6107359;23;20147;-81
2021/01/07 02:54:59;;;;;;;2.00;1.75;;;16.40;37.80;;;;;;6106043;23;20132;-81
2021/01/07 02:57:25;;;;;;;1.63;1.50;;;16.40;37.80;;;;;;6083310;23;20167;-80
2021/01/07 02:59:51;;;;;;;1.38;1.27;;;16.30;37.90;;;;;;6132561;23;20163;-81
2021/01/07 03:02:16;;;;;;;1.52;1.27;;;16.30;37.80;;;;;;6132854;23;20187;-80
2021/01/07 03:04:42;;;;;;;1.80;1.40;;;16.30;37.90;;;;;;6132879;23;20132;-81
2021/01/07 03:07:08;;;;;;;1.73;1.63;;;16.30;37.90;;;;;;6132473;23;20187;-79
2021/01/07 03:09:34;;;;;;;1.70;1.40;;;16.30;37.80;;;;;;6106900;23;20256;-80
2021/01/07 03:12:16;;;;;;;2.13;1.58;;;16.30;38.00;;;;;;6107025;23;20132;-80
2021/01/07 03:14:42;;;;;;;1.52;1.42;;;16.30;37.90;;;;;;6082678;23;20516;-80
2021/01/07 03:17:08;;;;;;;1.88;1.40;;;16.30;37.80;;;;;;6107009;23;20136;-80
2021/01/07 03:19:34;;;;;;;1.40;1.30;;;16.30;37.90;;;;;;6132285;23;20136;-80
2021/01/07 03:22:02;;;;;;;1.45;1.33;;;16.30;38.00;;;;;;6082716;23;20136;-80
2021/01/07 03:24:28;;;;;;;1.25;1.15;;;16.30;38.00;;;;;;6107423;23;20136;-80
2021/01/07 03:26:53;;;;;;;1.38;1.27;;;16.30;38.00;;;;;;6106850;23;20151;-80
2021/01/07 03:29:19;;;;;;;1.73;1.40;;;16.30;37.90;;;;;;6132751;23;20168;-80
2021/01/07 03:31:44;;;;;;;1.88;1.58;;;16.40;37.90;;;;;;6132224;23;20164;-81
2021/01/07 03:34:10;;;;;;;1.63;1.30;;;16.40;37.90;;;;;;6106391;23;20187;-81
2021/01/07 03:36:36;;;;;;;1.70;1.35;;;16.30;38.00;;;;;;6107144;23;20139;-80
2021/01/07 03:39:02;;;;;;;1.50;1.40;;;16.30;37.90;;;;;;6132470;23;20201;-79
2021/01/07 03:41:28;;;;;;;1.60;1.50;;;16.40;38.00;;;;;;6106575;23;20159;-79
2021/01/07 03:43:53;;;;;;;1.60;1.50;;;16.40;37.70;;;;;;6132440;23;20140;-81
2021/01/07 03:46:20;;;;;;;1.60;1.50;;;16.50;37.70;;;;;;6131789;23;20128;-80
2021/01/07 03:48:45;;;;;;;1.58;1.45;;;16.40;37.80;;;;;;6131971;23;20616;-80
2021/01/07 03:51:11;;;;;;;1.30;1.20;;;16.40;37.80;;;;;;6106694;23;20136;-79
2021/01/07 03:53:37;;;;;;;1.73;1.63;;;16.40;37.90;;;;;;6082253;23;20183;-81
2021/01/07 03:56:03;;;;;;;1.65;1.30;;;16.40;37.90;;;;;;6131956;23;20139;-81
2021/01/07 03:58:29;;;;;;;1.38;1.27;;;16.30;38.00;;;;;;6132518;23;20164;-81
2021/01/07 04:00:55;;;;;;;1.88;1.48;;;16.20;38.20;;;;;;6131549;23;20140;-80
2021/01/07 04:03:22;;;;;;;1.30;1.15;;;16.30;38.20;;;;;;6131800;23;20599;-80
2021/01/07 04:05:48;;;;;;;2.30;1.40;;;16.30;38.00;;;;;;6131873;23;20144;-80
2021/01/07 04:08:14;;;;;;;1.60;1.40;;;16.30;37.90;;;;;;6133381;23;20143;-80
2021/01/07 04:10:40;;;;;;;1.40;1.30;;;16.30;38.10;;;;;;6133990;23;20132;-80
2021/01/07 04:13:06;;;;;;;1.38;1.27;;;16.30;38.00;;;;;;6134961;23;20139;-79
2021/01/07 04:15:31;;;;;;;1.50;1.40;;;16.30;38.20;;;;;;6134510;23;20468;-80
2021/01/07 04:17:57;;;;;;;1.55;1.25;;;16.30;38.20;;;;;;6133217;23;20136;-80
2021/01/07 04:20:23;;;;;;;1.30;1.20;;;16.30;38.20;;;;;;6083976;23;20160;-81
2021/01/07 04:22:48;;;;;;;1.58;1.48;;;16.30;38.20;;;;;;6108580;23;20132;-80
2021/01/07 04:25:15;;;;;;;1.60;1.38;;;16.30;38.20;;;;;;6133198;23;20630;-80
2021/01/07 04:27:41;;;;;;;1.15;1.05;;;16.40;38.10;;;;;;6133372;23;20199;-80
2021/01/07 04:30:07;;;;;;;1.35;1.17;;;16.40;38.10;;;;;;6133649;23;20168;-80
2021/01/07 04:32:33;;;;;;;1.30;1.20;;;16.40;38.00;;;;;;6083657;23;20152;-81
2021/01/07 04:34:58;;;;;;;1.25;1.13;;;16.30;38.10;;;;;;6107498;23;20192;-80
2021/01/07 04:37:24;;;;;;;1.55;1.27;;;16.40;38.00;;;;;;6133244;23;20151;-80
2021/01/07 04:39:50;;;;;;;1.50;1.40;;;16.40;38.00;;;;;;6134493;23;20215;-80
2021/01/07 04:42:15;;;;;;;1.20;1.10;;;16.40;38.00;;;;;;6135999;23;20136;-80
2021/01/07 04:44:41;;;;;;;1.38;1.20;;;16.40;38.00;;;;;;6109493;23;20184;-80
2021/01/07 04:47:07;;;;;;;1.27;1.02;;;16.40;38.10;;;;;;6085896;23;20206;-81
2021/01/07 04:49:32;;;;;;;1.33;1.17;;;16.40;38.00;;;;;;6107985;23;20172;-80
2021/01/07 04:51:58;;;;;;;2.10;1.55;;;16.30;38.10;;;;;;6133883;23;20142;-79
2021/01/07 04:54:24;;;;;;;1.42;1.20;;;16.40;38.10;;;;;;6108603;23;20148;-80
2021/01/07 04:56:51;;;;;;;1.27;1.17;;;16.40;38.00;;;;;;6084513;23;20132;-80
2021/01/07 04:59:16;;;;;;;1.27;1.17;;;16.40;38.00;;;;;;6107884;23;20136;-79
2021/01/07 05:01:42;;;;;;;1.70;1.10;;;16.40;38.00;;;;;;6108953;23;20576;-79
2021/01/07 05:04:11;;;;;;;1.40;1.30;;;16.40;38.00;;;;;;6109059;23;20144;-80
2021/01/07 05:06:37;;;;;;;1.30;1.20;;;16.40;37.90;;;;;;6109169;23;20159;-81
2021/01/07 05:09:06;;;;;;;1.48;1.30;;;16.40;37.80;;;;;;6134898;23;20210;-80
2021/01/07 05:11:32;;;;;;;1.45;1.33;;;16.40;37.80;;;;;;6082994;23;20133;-80
2021/01/07 05:13:59;;;;;;;1.75;1.33;;;16.50;37.80;;;;;;6084125;23;20586;-80
2021/01/07 05:16:26;;;;;;;1.58;1.30;;;16.50;37.80;;;;;;6107413;23;20508;-78
2021/01/07 05:18:52;;;;;;;1.20;1.10;;;16.50;37.80;;;;;;6132422;23;20144;-79
2021/01/07 05:21:17;;;;;;;1.45;1.25;;;16.50;37.80;;;;;;6108019;23;20151;-80
2021/01/07 05:23:44;;;;;;;1.55;1.25;;;16.50;37.80;;;;;;6106881;23;20211;-80
2021/01/07 05:26:10;;;;;;;1.50;1.10;;;16.50;37.80;;;;;;6107341;23;20136;-81
2021/01/07 05:28:36;;;;;;;1.30;1.20;;;16.40;37.90;;;;;;6109390;23;20160;-80
2021/01/07 05:31:03;;;;;;;1.60;1.27;;;16.40;37.90;;;;;;6136263;23;20159;-81
2021/01/07 05:33:28;;;;;;;1.40;1.30;;;16.40;38.00;;;;;;6110133;23;20143;-81
2021/01/07 05:35:56;;;;;;;1.20;1.10;;;16.40;38.00;;;;;;6109578;23;20270;-80
2021/01/07 05:38:21;;;;;;;1.40;1.30;;;16.40;38.00;;;;;;6109888;23;20156;-80
2021/01/07 05:40:49;;;;;;;2.60;1.40;;;16.40;37.90;;;;;;6086203;23;20607;-80
2021/01/07 05:43:15;;;;;;;1.38;1.27;;;16.40;37.90;;;;;;6086854;23;20594;-80
2021/01/07 05:45:54;;;;;;;1.35;1.17;;;16.40;37.90;;;;;;6110704;23;20137;-80
2021/01/07 05:48:21;;;;;;;1.38;1.27;;;16.40;38.00;;;;;;6136427;23;20172;-80
2021/01/07 05:50:47;;;;;;;1.50;1.40;;;16.40;38.00;;;;;;6110665;23;20215;-81
2021/01/07 05:53:14;;;;;;;1.15;1.05;;;16.40;38.00;;;;;;6110362;23;20133;-80
2021/01/07 05:55:40;;;;;;;1.25;1.13;;;16.30;38.70;;;;;;6111555;23;20464;-80
2021/01/07 05:58:07;;;;;;;1.60;1.30;;;16.40;37.90;;;;;;6111060;23;20215;-80
2021/01/07 06:00:33;;;;;;;1.20;1.10;;;16.40;37.90;;;;;;6136457;23;20182;-81
2021/01/07 06:03:00;;;;;;;1.67;1.30;;;16.40;37.80;;;;;;6114330;23;20137;-79
2021/01/07 06:05:26;;;;;;;1.20;1.08;;;16.40;38.00;;;;;;6115179;23;20580;-81
2021/01/07 06:07:53;;;;;;;1.42;1.27;;;16.30;38.00;;;;;;6114031;23;20156;-80
2021/01/07 06:10:19;;;;;;;1.50;1.40;;;16.30;38.00;;;;;;6115783;23;20163;-79
2021/01/07 06:12:44;;;;;;;1.45;1.10;;;16.30;38.00;;;;;;6091913;23;20133;-83
2021/01/07 06:15:11;;;;;;;1.27;1.17;;;16.30;38.00;;;;;;6141613;23;20140;-82
2021/01/07 06:17:38;;;;;;;1.40;1.30;;;16.40;38.00;;;;;;6141398;23;20726;-83
2021/01/07 06:20:33;;;;;;;1.60;1.45;;;16.40;38.00;;;;;;6115710;23;20137;-82
2021/01/07 06:22:58;;;;;;;1.63;1.50;;;16.40;38.00;;;;;;6138223;23;20141;-82
2021/01/07 06:25:24;;;;;;;1.30;1.20;;;16.40;38.00;;;;;;6140921;23;20136;-82
2021/01/07 06:27:51;;;;;;;1.40;1.30;;;16.30;38.00;;;;;;6114241;23;20263;-83
2021/01/07 06:30:16;;;;;;;1.45;1.27;;;16.40;37.80;;;;;;6140843;23;20216;-82
2021/01/07 06:32:43;;;;;;;1.77;1.42;;;16.40;37.80;;;;;;6114030;23;20152;-82
2021/01/07 06:35:13;;;;;;;1.80;1.40;;;16.40;37.80;;;;;;6115550;23;20218;-82
2021/01/07 06:37:42;;;;;;;1.60;1.25;;;16.40;37.90;;;;;;6115348;23;20132;-82
2021/01/07 06:40:09;;;;;;;1.38;1.27;;;16.40;37.90;;;;;;6140464;23;20136;-82
2021/01/07 06:42:39;;;;;;;1.70;1.33;;;16.40;37.80;;;;;;6091032;23;20140;-82
2021/01/07 06:45:05;;;;;;;1.42;1.30;;;16.40;37.80;;;;;;6092009;23;20147;-83
2021/01/07 06:47:31;;;;;;;1.50;1.25;;;16.40;37.80;;;;;;6115465;23;20136;-81
2021/01/07 06:50:06;;;;;;;1.60;1.40;;;16.40;38.00;;;;;;6115586;23;20166;-81
2021/01/07 06:52:42;;;;;;;1.45;1.30;;;16.40;38.20;;;;;;6139872;23;20139;-77
2021/01/07 06:55:12;;;;;;;1.63;1.35;;;16.50;38.90;;;;;;6079944;23;20140;-77
2021/01/07 06:57:47;;;;;;;1.40;1.30;;;16.50;38.50;;;;;;6109944;23;20129;-83
2021/01/07 07:00:14;;;;;;;1.30;1.20;;;16.50;38.60;;;;;;6108187;23;20643;-83
2021/01/07 07:02:54;;;;;;;1.77;1.48;;;16.50;38.50;;;;;;6088085;23;20160;-80
2021/01/07 07:05:20;;;;;;;1.30;1.20;;;16.40;38.10;;;;;;6091208;23;20190;-82
2021/01/07 07:08:07;;;;;;;1.48;1.30;;;16.50;38.50;;;;;;6091469;23;20152;-82
2021/01/07 07:10:33;;;;;;;1.48;1.30;;;16.50;38.20;;;;;;6113972;23;20708;-82
2021/01/07 07:13:16;;;;;;;1.38;1.27;;;16.50;38.20;;;;;;6140206;23;20136;-82
2021/01/07 07:15:45;;;;;;;1.60;1.40;;;16.50;38.20;;;;;;6116117;23;20137;-83
2021/01/07 07:18:12;;;;;;;1.55;1.45;;;16.40;39.00;;;;;;6115027;23;20136;-82
2021/01/07 07:20:40;;;;;;;1.40;1.20;;;16.50;38.20;;;;;;6115214;23;20139;-82
2021/01/07 07:23:23;;;;;;;1.33;1.20;;;16.40;38.20;;;;;;6091005;23;20136;-82
2021/01/07 07:25:53;;;;;;;1.60;1.40;;;16.40;38.10;;;;;;6141007;23;20140;-82
2021/01/07 07:28:25;;;;;;;1.35;1.25;;;16.40;38.00;;;;;;6114942;23;20144;-82
2021/01/07 07:30:51;;;;;;;1.35;1.25;;;16.50;38.10;;;;;;6140994;23;20132;-82
2021/01/07 07:33:41;;;;;;;1.50;1.20;;;16.60;38.00;;;;;;6114986;23;20159;-82
2021/01/07 07:36:08;;;;;;;1.92;1.50;;;16.60;37.90;;;;;;6140121;23;20252;-85
2021/01/07 07:38:35;;;;;;;1.70;1.48;;;16.60;37.90;;;;;;6090862;23;20217;-83
2021/01/07 07:41:12;;;;;;;1.73;1.50;;;16.60;37.90;;;;;;6141171;23;20160;-84
2021/01/07 07:43:41;;;;;;;1.83;1.30;;;16.50;37.80;;;;;;6114038;23;20144;-84
2021/01/07 07:46:07;;;;;;;1.58;1.30;;;16.50;38.10;;;;;;6114689;23;20152;-85
2021/01/07 07:48:34;;;;;;;1.60;1.20;;;16.60;37.90;;;;;;6141155;23;20678;-82
2021/01/07 07:51:10;;;;;;;1.50;1.30;;;16.50;37.90;;;;;;6089658;23;20160;-81
2021/01/07 07:53:37;;;;;;;1.50;1.40;;;16.50;38.00;;;;;;6113723;23;20188;-82
2021/01/07 07:56:03;;;;;;;1.58;1.42;;;16.50;38.00;;;;;;6090269;23;20140;-83
2021/01/07 07:58:30;;;;;;;1.60;1.45;;;16.50;37.90;;;;;;6139825;23;20136;-82
2021/01/07 08:00:57;;;;;;;1.40;1.30;;;16.50;38.00;;;;;;6139405;23;20178;-81
2021/01/07 08:03:27;;;;;;;1.67;1.38;;;16.60;38.00;;;;;;6138770;23;20140;-79
2021/01/07 08:05:54;;;;;;;2.20;1.52;;;16.70;38.50;;;;;;6136596;23;20140;-80
2021/01/07 08:08:24;;;;;;;1.42;1.33;;;16.70;37.90;;;;;;6114044;23;20490;-82
2021/01/07 08:10:50;;;;;;;1.60;1.50;;;16.70;37.80;;;;;;6140682;23;20132;-83
2021/01/07 08:13:18;;;;;;;1.60;1.50;;;16.70;37.80;;;;;;6141583;23;20136;-82
2021/01/07 08:15:52;;;;;;;1.42;1.33;;;16.60;37.80;;;;;;6138234;23;20132;-83
2021/01/07 08:18:20;;;;;;;2.15;1.35;;;16.70;37.80;;;;;;6136129;23;20129;-81
2021/01/07 08:21:06;;;;;;;2.65;1.80;;;16.60;37.70;;;;;;6086355;23;20430;-84
2021/01/07 08:23:41;;;;;;;1.95;1.75;;;16.60;37.80;;;;;;6136317;23;20152;-82
2021/01/07 08:26:06;;;;;;;1.55;1.42;;;16.60;37.90;;;;;;6136687;23;20467;-80
2021/01/07 08:28:43;;;;;;;1.75;1.65;;;16.60;38.00;;;;;;6086812;23;20168;-81
2021/01/07 08:31:28;;;;;;;1.40;1.30;;;16.50;38.00;;;;;;6111612;23;20137;-82
2021/01/07 08:33:53;;;;;;;1.60;1.50;;;16.60;38.00;;;;;;6113764;23;20129;-81
2021/01/07 08:36:20;;;;;;;1.75;1.58;;;16.60;38.00;;;;;;6089114;23;20151;-82
2021/01/07 08:38:50;;;;;;;1.48;1.17;;;16.60;38.00;;;;;;6113956;23;20136;-82
2021/01/07 08:41:22;;;;;;;1.58;1.30;;;16.60;37.80;;;;;;6139709;23;20151;-83
2021/01/07 08:43:48;;;;;;;1.58;1.48;;;16.60;37.80;;;;;;6140756;23;20137;-81
2021/01/07 08:46:22;;;;;;;4.35;1.77;;;16.70;37.90;;;;;;6139218;23;20172;-82
2021/01/07 08:49:02;;;;;;;2.15;1.70;;;16.60;37.90;;;;;;6114162;23;20191;-83
2021/01/07 08:51:43;;;;;;;2.70;1.55;;;16.60;38.10;;;;;;6140529;23;20129;-82
2021/01/07 08:54:11;;;;;;;2.60;1.55;;;16.70;38.00;;;;;;6139933;23;20136;-83
2021/01/07 08:56:41;;;;;;;2.25;1.70;;;16.70;38.30;;;;;;6115316;23;20205;-81
2021/01/07 08:59:22;;;;;;;2.17;1.65;;;16.70;38.30;;;;;;6115532;23;20137;-82
2021/01/07 09:01:49;;;;;;;2.20;1.60;;;16.70;38.40;;;;;;6140339;23;20148;-81
2021/01/07 09:04:26;;;;;;;3.88;1.70;;;16.70;38.40;;;;;;6140405;23;20224;-82
2021/01/07 09:06:55;;;;;;;2.38;1.52;;;16.70;38.40;;;;;;6140310;23;20163;-82
2021/01/07 09:09:21;;;;;;;1.77;1.55;;;16.70;38.30;;;;;;6090942;23;20171;-81
2021/01/07 09:11:46;;;;;;;1.75;1.48;;;16.70;38.50;;;;;;6139826;23;20129;-80
2021/01/07 09:14:12;;;;;;;2.10;1.85;;;16.60;38.50;;;;;;6114829;23;20140;-80
2021/01/07 09:16:39;;;;;;;2.13;1.73;;;16.70;38.60;;;;;;6140804;23;20164;-79
2021/01/07 09:19:05;;;;;;;1.70;1.58;;;16.70;38.70;;;;;;6131614;23;20141;-80
2021/01/07 09:21:33;;;;;;;2.35;1.70;;;16.60;38.70;;;;;;6106956;23;20151;-79
2021/01/07 09:24:00;;;;;;;2.63;1.90;;;16.70;38.80;;;;;;6133120;23;20145;-79
2021/01/07 09:26:32;;;;;;;2.58;1.80;;;16.70;38.70;;;;;;6132671;23;20512;-78
2021/01/07 09:28:58;;;;;;;1.88;1.70;;;16.80;38.90;;;;;;6105391;23;20180;-80
2021/01/07 09:31:24;;;;;;;2.58;1.52;;;16.80;38.90;;;;;;6129339;23;20587;-80
2021/01/07 09:33:49;;;;;;;1.90;1.67;;;16.70;39.00;;;;;;6130387;23;20132;-78
2021/01/07 09:36:15;;;;;;;3.22;1.83;;;16.80;38.90;;;;;;6105225;23;20268;-79
2021/01/07 09:38:40;;;;;;;2.20;1.67;;;16.80;39.10;;;;;;6131144;23;20132;-79
2021/01/07 09:41:06;;;;;;;2.90;1.65;;;16.80;39.10;;;;;;6104986;23;20141;-79
2021/01/07 09:43:35;;;;;;;2.33;1.80;;;16.80;39.20;;;;;;6131428;23;20160;-79
2021/01/07 09:46:00;;;;;;;1.65;1.48;;;16.80;39.30;;;;;;6105038;23;20145;-78
2021/01/07 09:48:26;;;;;;;1.95;1.67;;;16.80;39.20;;;;;;6131095;23;20137;-79
2021/01/07 09:50:52;;;;;;;2.08;1.55;;;16.80;39.30;;;;;;6104955;23;20553;-79
2021/01/07 09:53:20;;;;;;;2.13;1.60;;;16.80;39.30;;;;;;6104344;23;20146;-78
2021/01/07 09:55:49;;;;;;;4.05;1.70;;;16.70;39.50;;;;;;6104604;23;20502;-79
2021/01/07 09:58:15;;;;;;;1.92;1.60;;;16.70;39.40;;;;;;6131633;23;20199;-78
2021/01/07 10:00:41;;;;;;;3.00;1.70;;;16.80;39.50;;;;;;6131046;23;20141;-77
2021/01/07 10:03:07;;;;;;;3.08;1.80;;;16.80;39.40;;;;;;6133739;23;20143;-79
2021/01/07 10:05:32;;;;;;;3.35;1.83;;;16.80;39.50;;;;;;6080910;23;20152;-79
2021/01/07 10:08:00;;;;;;;2.47;1.80;;;16.80;39.60;;;;;;6080789;23;20155;-77
2021/01/07 10:10:26;;;;;;;2.80;1.50;;;16.80;39.80;;;;;;6102827;23;20187;-79
2021/01/07 10:12:53;;;;;;;2.45;2.00;;;16.80;39.80;;;;;;6129219;23;20631;-78
2021/01/07 10:15:21;;;;;;;3.30;1.63;;;16.80;40.00;;;;;;6130488;23;20476;-79
2021/01/07 10:17:48;;;;;;;3.22;1.83;;;16.80;39.80;;;;;;6128605;23;20145;-79
2021/01/07 10:20:14;;;;;;;3.15;1.90;;;16.80;40.00;;;;;;6126871;23;20445;-84
2021/01/07 10:22:40;;;;;;;3.97;1.75;;;16.90;40.10;;;;;;6126351;23;20576;-79
2021/01/07 10:25:08;;;;;;;3.45;1.50;;;16.90;39.90;;;;;;6079111;23;20143;-80
2021/01/07 10:27:34;;;;;;;4.90;1.80;;;17.00;39.70;;;;;;6127965;23;20480;-80
2021/01/07 10:30:01;;;;;;;3.85;1.70;;;17.00;39.80;;;;;;6128018;23;20176;-78
2021/01/07 10:32:27;;;;;;;4.75;1.90;;;17.00;39.80;;;;;;6102010;23;20136;-80
2021/01/07 10:34:52;;;;;;;5.68;2.22;;;17.00;40.00;;;;;;6102960;23;20576;-78
2021/01/07 10:37:23;;;;;;;5.70;2.15;;;17.00;40.00;;;;;;6101119;23;20140;-80
2021/01/07 10:39:50;;;;;;;3.72;2.00;;;17.10;40.20;;;;;;6126483;23;20140;-81
2021/01/07 10:42:17;;;;;;;7.18;2.63;;;17.00;40.00;;;;;;6100082;23;20140;-81
2021/01/07 10:44:46;;;;;;;3.55;2.03;;;17.00;40.10;;;;;;6075700;23;20207;-78
2021/01/07 10:47:13;;;;;;;5.85;1.90;;;17.00;40.10;;;;;;6102579;23;20484;-80
2021/01/07 10:49:41;;;;;;;6.20;2.00;;;17.00;40.10;;;;;;6128398;23;20263;-79
2021/01/07 10:52:13;;;;;;;4.88;2.22;;;17.00;40.10;;;;;;6127927;23;20146;-79
2021/01/07 10:55:04;;;;;;;4.80;2.08;;;17.10;39.90;;;;;;6126850;23;20136;-78
2021/01/07 10:58:07;;;;;;;5.15;1.90;;;17.10;40.00;;;;;;6128675;23;20160;-78
2021/01/07 11:00:57;;;;;;;8.38;1.90;;;17.10;40.00;;;;;;6129513;23;20563;-78
2021/01/07 11:03:57;;;;;;;4.78;2.10;;;17.10;40.00;;;;;;6103429;23;20141;-79
2021/01/07 11:06:26;;;;;;;2.88;2.03;;;17.00;40.30;;;;;;6105340;23;20172;-80
2021/01/07 11:08:58;;;;;;;3.33;1.90;;;16.90;40.30;;;;;;6104384;23;20168;-79
2021/01/07 11:11:26;;;;;;;4.40;2.10;;;17.00;40.40;;;;;;6130097;23;20136;-80
2021/01/07 11:13:56;;;;;;;2.97;2.05;;;17.00;40.30;;;;;;6104545;23;20147;-79
2021/01/07 11:16:41;;;;;;;5.13;1.80;;;17.10;40.30;;;;;;6130764;23;20217;-79
2021/01/07 11:19:23;;;;;;;2.38;2.08;;;17.00;40.50;;;;;;6100944;23;20159;-80
2021/01/07 11:22:01;;;;;;;5.38;2.08;;;17.00;40.40;;;;;;6101916;23;20215;-82
2021/01/07 11:24:27;;;;;;;3.33;2.03;;;17.00;40.50;;;;;;6057589;23;20164;-79
2021/01/07 11:26:54;;;;;;;4.50;2.17;;;17.10;40.30;;;;;;6130712;23;20175;-81
2021/01/07 11:29:20;;;;;;;5.03;1.88;;;17.10;40.40;;;;;;6079285;23;20234;-78
2021/01/07 11:31:45;;;;;;;2.75;2.03;;;17.00;40.50;;;;;;6078983;23;20151;-79
2021/01/07 11:34:12;;;;;;;3.88;2.15;;;16.90;41.40;;;;;;6079220;23;20183;-81
2021/01/07 11:36:46;;;;;;;3.92;1.85;;;16.90;40.80;;;;;;6128852;23;20212;-78
2021/01/07 11:39:12;;;;;;;4.05;1.92;;;17.00;40.70;;;;;;6080317;23;20144;-78
2021/01/07 11:41:47;;;;;;;3.33;1.90;;;16.90;40.70;;;;;;6078970;23;20532;-79
2021/01/07 11:44:20;;;;;;;6.40;2.40;;;17.00;40.70;;;;;;6079755;23;20163;-79
2021/01/07 11:46:48;;;;;;;2.65;1.88;;;17.00;40.70;;;;;;6136210;23;20191;-78
2021/01/07 11:49:17;;;;;;;3.10;1.77;;;16.90;40.60;;;;;;6130090;23;20174;-79
2021/01/07 11:51:44;;;;;;;4.80;2.00;;;16.90;40.70;;;;;;6103662;23;20142;-78
2021/01/07 11:54:10;;;;;;;4.47;1.95;;;16.90;40.60;;;;;;6079351;23;20151;-79
2021/01/07 11:56:36;;;;;;;2.72;2.20;;;17.00;40.60;;;;;;6104823;23;20461;-81
2021/01/07 11:59:01;;;;;;;2.92;2.10;;;17.00;40.50;;;;;;6080224;23;20220;-79
2021/01/07 12:01:50;;;;;;;2.83;1.70;;;17.00;40.50;;;;;;6128441;23;20136;-80
2021/01/07 12:04:16;;;;;;;3.00;2.15;;;17.00;40.60;;;;;;6101682;23;20140;-79
2021/01/07 12:06:49;;;;;;;3.40;1.80;;;16.90;40.70;;;;;;6104594;23;20536;-79
2021/01/07 12:09:44;;;;;;;4.32;2.17;;;16.90;40.80;;;;;;6130985;23;20171;-78
2021/01/07 12:12:14;;;;;;;2.42;1.92;;;16.90;40.70;;;;;;6012065;23;20155;-79
2021/01/07 12:15:03;;;;;;;5.68;2.17;;;16.90;40.70;;;;;;6012611;23;20150;-79
2021/01/07 12:17:49;;;;;;;2.25;1.83;;;16.90;40.70;;;;;;6011982;23;20543;-78
2021/01/07 12:20:35;;;;;;;2.78;1.90;;;17.00;40.70;;;;;;6011716;23;20143;-79
2021/01/07 12:23:00;;;;;;;2.78;1.95;;;16.90;40.70;;;;;;5989126;23;20162;-79
2021/01/07 12:25:26;;;;;;;2.65;1.90;;;16.90;40.80;;;;;;5988155;23;20163;-79
2021/01/07 12:27:52;;;;;;;2.08;1.83;;;16.90;40.80;;;;;;5988924;23;20143;-78
2021/01/07 12:30:38;;;;;;;3.08;2.13;;;17.00;40.80;;;;;;5989278;23;20178;-79
2021/01/07 12:33:47;;;;;;;2.47;1.90;;;17.00;40.70;;;;;;5989943;23;20142;-78
2021/01/07 12:36:34;;;;;;;2.35;1.88;;;17.00;40.70;;;;;;6014665;23;20163;-79
2021/01/07 12:39:04;;;;;;;1.70;1.60;;;17.00;40.60;;;;;;6013137;23;20199;-78
2021/01/07 12:41:32;;;;;;;2.38;1.98;;;17.00;40.70;;;;;;6012902;23;20162;-79
2021/01/07 12:43:57;;;;;;;3.45;2.00;;;17.00;40.80;;;;;;5990066;23;20170;-78
2021/01/07 12:46:25;;;;;;;2.63;1.90;;;17.00;40.80;;;;;;5990194;23;20591;-79
2021/01/07 12:48:51;;;;;;;3.47;2.15;;;16.90;40.80;;;;;;6026372;23;20179;-79
2021/01/07 12:51:17;;;;;;;2.70;1.90;;;16.90;40.90;;;;;;6104704;23;20144;-78
2021/01/07 12:53:44;;;;;;;5.32;2.00;;;16.90;40.90;;;;;;6081830;23;20526;-80
2021/01/07 12:56:29;;;;;;;3.88;1.80;;;16.90;40.80;;;;;;6129970;23;20136;-79